Mount Hope, Kansas
Current Conditions -  °F | °C
As of 4:52 PM on Wednesday 26 Nov 2014 (Local Time) from KHUT Reporting Station
Overcast Overcast  
Wind Chill: 31°   Ceiling: 10000
Heat Index: 40°   Visibility: 10mi
Dew Point: 21°   Wind: 16mph
Humidity: 47%   Direction: 340°NNW
Pressure: 30.3"   Gusts: 25mph
Location:  37.87°N, 97.67°W
Report Text: KHUT 262252Z 34014G22KT 10SM OVC100 04/M06 A3030 RMK AO2 SLP259 T00441061
Loading
Personal Weather Stations






























Interactive Weather Map New forecast layout! Learn more

10-Day Weather Forecast

Advertisements
Track Severe Weather on mobile